sensor_id;sensor_type;location;lat;lon;timestamp;temperature;humidity
23629;DHT22;11991;57.150;-2.134;2024-01-06T00:00:27;4.10;99.90
23629;DHT22;11991;57.150;-2.134;2024-01-06T00:02:54;4.10;99.90
23629;DHT22;11991;57.150;-2.134;2024-01-06T00:05:21;4.20;99.90
23629;DHT22;11991;57.150;-2.134;2024-01-06T00:07:48;4.20;99.90
23629;DHT22;11991;57.150;-2.134;2024-01-06T00:10:17;4.30;99.90
23629;DHT22;11991;57.150;-2.134;2024-01-06T00:12:45;4.30;99.90
23629;DHT22;11991;57.150;-2.134;2024-01-06T00:15:12;4.30;99.90
23629;DHT22;11991;57.150;-2.134;2024-01-06T00:17:39;4.30;99.90
23629;DHT22;11991;57.150;-2.134;2024-01-06T00:20:07;4.40;99.90
23629;DHT22;11991;57.150;-2.134;2024-01-06T00:22:35;4.30;99.90
23629;DHT22;11991;57.150;-2.134;2024-01-06T00:25:02;4.40;99.90
23629;DHT22;11991;57.150;-2.134;2024-01-06T00:27:29;4.40;99.90
23629;DHT22;11991;57.150;-2.134;2024-01-06T00:29:57;4.40;99.90
23629;DHT22;11991;57.150;-2.134;2024-01-06T00:32:24;4.50;99.90
23629;DHT22;11991;57.150;-2.134;2024-01-06T00:34:51;4.50;99.90
23629;DHT22;11991;57.150;-2.134;2024-01-06T00:37:18;4.50;99.90
23629;DHT22;11991;57.150;-2.134;2024-01-06T00:39:45;4.60;99.90
23629;DHT22;11991;57.150;-2.134;2024-01-06T00:42:13;4.60;99.90
23629;DHT22;11991;57.150;-2.134;2024-01-06T00:44:40;4.60;99.90
23629;DHT22;11991;57.150;-2.134;2024-01-06T00:47:07;4.60;99.90
23629;DHT22;11991;57.150;-2.134;2024-01-06T00:49:34;4.60;99.90
23629;DHT22;11991;57.150;-2.134;2024-01-06T00:52:02;4.60;99.90
23629;DHT22;11991;57.150;-2.134;2024-01-06T00:54:29;4.60;99.90
23629;DHT22;11991;57.150;-2.134;2024-01-06T00:56:56;4.60;99.90
23629;DHT22;11991;57.150;-2.134;2024-01-06T00:59:24;4.60;99.90
23629;DHT22;11991;57.150;-2.134;2024-01-06T01:01:52;4.60;99.90
23629;DHT22;11991;57.150;-2.134;2024-01-06T01:04:19;4.60;99.90
23629;DHT22;11991;57.150;-2.134;2024-01-06T01:06:47;4.60;99.90
23629;DHT22;11991;57.150;-2.134;2024-01-06T01:09:14;4.60;99.90
23629;DHT22;11991;57.150;-2.134;2024-01-06T01:11:42;4.60;99.90
23629;DHT22;11991;57.150;-2.134;2024-01-06T01:14:09;4.70;99.90
23629;DHT22;11991;57.150;-2.134;2024-01-06T01:16:36;4.70;99.90
23629;DHT22;11991;57.150;-2.134;2024-01-06T01:19:03;4.80;99.90
23629;DHT22;11991;57.150;-2.134;2024-01-06T01:21:31;4.80;99.90
23629;DHT22;11991;57.150;-2.134;2024-01-06T01:23:58;4.90;99.90
23629;DHT22;11991;57.150;-2.134;2024-01-06T01:26:25;4.90;99.90
23629;DHT22;11991;57.150;-2.134;2024-01-06T01:28:52;5.00;99.90
23629;DHT22;11991;57.150;-2.134;2024-01-06T01:31:20;5.00;99.90
23629;DHT22;11991;57.150;-2.134;2024-01-06T01:33:47;5.00;99.90
23629;DHT22;11991;57.150;-2.134;2024-01-06T01:36:15;5.00;99.90
23629;DHT22;11991;57.150;-2.134;2024-01-06T01:38:42;5.00;99.90
23629;DHT22;11991;57.150;-2.134;2024-01-06T01:41:09;5.00;99.90
23629;DHT22;11991;57.150;-2.134;2024-01-06T01:43:36;5.00;99.90
23629;DHT22;11991;57.150;-2.134;2024-01-06T01:46:05;5.00;99.90
23629;DHT22;11991;57.150;-2.134;2024-01-06T01:48:32;5.10;99.90
23629;DHT22;11991;57.150;-2.134;2024-01-06T01:51:02;5.10;99.90
23629;DHT22;11991;57.150;-2.134;2024-01-06T01:53:30;5.10;99.90
23629;DHT22;11991;57.150;-2.134;2024-01-06T01:55:58;5.10;99.90
23629;DHT22;11991;57.150;-2.134;2024-01-06T01:58:26;5.00;99.90
23629;DHT22;11991;57.150;-2.134;2024-01-06T02:00:53;5.00;99.90
23629;DHT22;11991;57.150;-2.134;2024-01-06T02:03:21;5.00;99.90
23629;DHT22;11991;57.150;-2.134;2024-01-06T02:05:49;5.00;99.90
23629;DHT22;11991;57.150;-2.134;2024-01-06T02:08:16;4.90;99.90
23629;DHT22;11991;57.150;-2.134;2024-01-06T02:10:43;4.90;99.90
23629;DHT22;11991;57.150;-2.134;2024-01-06T02:13:11;4.90;99.90
23629;DHT22;11991;57.150;-2.134;2024-01-06T02:15:38;4.90;99.90
23629;DHT22;11991;57.150;-2.134;2024-01-06T02:18:06;4.90;99.90
23629;DHT22;11991;57.150;-2.134;2024-01-06T02:20:34;4.90;99.90
23629;DHT22;11991;57.150;-2.134;2024-01-06T02:23:01;4.90;99.90
23629;DHT22;11991;57.150;-2.134;2024-01-06T02:25:28;4.90;99.90
23629;DHT22;11991;57.150;-2.134;2024-01-06T02:27:56;4.90;99.90
23629;DHT22;11991;57.150;-2.134;2024-01-06T02:30:23;4.90;99.90
23629;DHT22;11991;57.150;-2.134;2024-01-06T02:32:51;4.90;99.90
23629;DHT22;11991;57.150;-2.134;2024-01-06T02:35:20;4.90;99.90
23629;DHT22;11991;57.150;-2.134;2024-01-06T02:37:47;4.90;99.90
23629;DHT22;11991;57.150;-2.134;2024-01-06T02:40:15;4.90;99.90
23629;DHT22;11991;57.150;-2.134;2024-01-06T02:42:42;4.90;99.90
23629;DHT22;11991;57.150;-2.134;2024-01-06T02:45:09;4.90;99.90
23629;DHT22;11991;57.150;-2.134;2024-01-06T02:47:37;4.90;99.90
23629;DHT22;11991;57.150;-2.134;2024-01-06T02:50:05;4.80;99.90
23629;DHT22;11991;57.150;-2.134;2024-01-06T02:52:32;4.80;99.90
23629;DHT22;11991;57.150;-2.134;2024-01-06T02:54:59;4.80;99.90
23629;DHT22;11991;57.150;-2.134;2024-01-06T02:57:31;4.90;99.90
23629;DHT22;11991;57.150;-2.134;2024-01-06T02:59:58;4.80;99.90
23629;DHT22;11991;57.150;-2.134;2024-01-06T03:02:25;4.80;99.90
23629;DHT22;11991;57.150;-2.134;2024-01-06T03:04:52;4.90;99.90
23629;DHT22;11991;57.150;-2.134;2024-01-06T03:07:20;4.80;99.90
23629;DHT22;11991;57.150;-2.134;2024-01-06T03:09:47;4.80;99.90
23629;DHT22;11991;57.150;-2.134;2024-01-06T03:12:14;4.90;99.90
23629;DHT22;11991;57.150;-2.134;2024-01-06T03:14:42;4.90;99.90
23629;DHT22;11991;57.150;-2.134;2024-01-06T03:17:09;4.90;99.90
23629;DHT22;11991;57.150;-2.134;2024-01-06T03:19:39;4.90;99.90
23629;DHT22;11991;57.150;-2.134;2024-01-06T03:22:06;4.90;99.90
23629;DHT22;11991;57.150;-2.134;2024-01-06T03:24:33;4.90;99.90
23629;DHT22;11991;57.150;-2.134;2024-01-06T03:27:00;4.90;99.90
23629;DHT22;11991;57.150;-2.134;2024-01-06T03:29:28;4.90;99.90
23629;DHT22;11991;57.150;-2.134;2024-01-06T03:31:55;4.80;99.90
23629;DHT22;11991;57.150;-2.134;2024-01-06T03:34:22;4.80;99.90
23629;DHT22;11991;57.150;-2.134;2024-01-06T03:36:49;4.80;99.90
23629;DHT22;11991;57.150;-2.134;2024-01-06T03:39:16;4.90;99.90
23629;DHT22;11991;57.150;-2.134;2024-01-06T03:41:44;4.80;99.90
23629;DHT22;11991;57.150;-2.134;2024-01-06T03:44:11;4.80;99.90
23629;DHT22;11991;57.150;-2.134;2024-01-06T03:46:38;4.80;99.90
23629;DHT22;11991;57.150;-2.134;2024-01-06T03:49:05;4.80;99.90
23629;DHT22;11991;57.150;-2.134;2024-01-06T03:51:32;4.90;99.90
23629;DHT22;11991;57.150;-2.134;2024-01-06T03:54:00;4.90;99.90
23629;DHT22;11991;57.150;-2.134;2024-01-06T03:56:27;4.90;99.90
23629;DHT22;11991;57.150;-2.134;2024-01-06T03:58:54;4.90;99.90
23629;DHT22;11991;57.150;-2.134;2024-01-06T04:01:21;4.90;99.90
23629;DHT22;11991;57.150;-2.134;2024-01-06T04:03:48;4.90;99.90
23629;DHT22;11991;57.150;-2.134;2024-01-06T04:06:16;4.90;99.90
23629;DHT22;11991;57.150;-2.134;2024-01-06T04:08:43;4.90;99.90
23629;DHT22;11991;57.150;-2.134;2024-01-06T04:11:10;4.90;99.90
23629;DHT22;11991;57.150;-2.134;2024-01-06T04:13:37;4.90;99.90
23629;DHT22;11991;57.150;-2.134;2024-01-06T04:16:05;4.80;99.90
23629;DHT22;11991;57.150;-2.134;2024-01-06T04:18:32;4.80;99.90
23629;DHT22;11991;57.150;-2.134;2024-01-06T04:20:59;4.80;99.90
23629;DHT22;11991;57.150;-2.134;2024-01-06T04:23:27;4.80;99.90
23629;DHT22;11991;57.150;-2.134;2024-01-06T04:25:54;4.80;99.90
23629;DHT22;11991;57.150;-2.134;2024-01-06T04:28:21;4.80;99.90
23629;DHT22;11991;57.150;-2.134;2024-01-06T04:30:48;4.80;99.90
23629;DHT22;11991;57.150;-2.134;2024-01-06T04:33:16;4.80;99.90
23629;DHT22;11991;57.150;-2.134;2024-01-06T04:35:43;4.80;99.90
23629;DHT22;11991;57.150;-2.134;2024-01-06T04:38:11;4.80;99.90
23629;DHT22;11991;57.150;-2.134;2024-01-06T04:40:38;4.80;99.90
23629;DHT22;11991;57.150;-2.134;2024-01-06T04:43:05;4.80;99.90
23629;DHT22;11991;57.150;-2.134;2024-01-06T04:45:32;4.80;99.90
23629;DHT22;11991;57.150;-2.134;2024-01-06T04:47:59;4.70;99.90
23629;DHT22;11991;57.150;-2.134;2024-01-06T04:50:26;4.70;99.90
23629;DHT22;11991;57.150;-2.134;2024-01-06T04:52:54;4.70;99.90
23629;DHT22;11991;57.150;-2.134;2024-01-06T04:55:21;4.70;99.90
23629;DHT22;11991;57.150;-2.134;2024-01-06T04:57:51;4.70;99.90
23629;DHT22;11991;57.150;-2.134;2024-01-06T05:00:18;4.70;99.90
23629;DHT22;11991;57.150;-2.134;2024-01-06T05:02:45;4.70;99.90
23629;DHT22;11991;57.150;-2.134;2024-01-06T05:05:12;4.70;99.90
23629;DHT22;11991;57.150;-2.134;2024-01-06T05:07:40;4.60;99.90
23629;DHT22;11991;57.150;-2.134;2024-01-06T05:10:08;4.60;99.90
23629;DHT22;11991;57.150;-2.134;2024-01-06T05:12:35;4.60;99.90
23629;DHT22;11991;57.150;-2.134;2024-01-06T05:15:02;4.60;99.90
23629;DHT22;11991;57.150;-2.134;2024-01-06T05:17:29;4.60;99.90
23629;DHT22;11991;57.150;-2.134;2024-01-06T05:19:57;4.60;99.90
23629;DHT22;11991;57.150;-2.134;2024-01-06T05:22:24;4.50;99.90
23629;DHT22;11991;57.150;-2.134;2024-01-06T05:24:51;4.50;99.90
23629;DHT22;11991;57.150;-2.134;2024-01-06T05:27:20;4.50;99.90
23629;DHT22;11991;57.150;-2.134;2024-01-06T05:29:47;4.50;99.90
23629;DHT22;11991;57.150;-2.134;2024-01-06T05:32:16;4.40;99.90
23629;DHT22;11991;57.150;-2.134;2024-01-06T05:34:45;4.40;99.90
23629;DHT22;11991;57.150;-2.134;2024-01-06T05:37:12;4.40;99.90
23629;DHT22;11991;57.150;-2.134;2024-01-06T05:39:40;4.40;99.90
23629;DHT22;11991;57.150;-2.134;2024-01-06T05:42:09;4.40;99.90
23629;DHT22;11991;57.150;-2.134;2024-01-06T05:44:40;4.30;99.90
23629;DHT22;11991;57.150;-2.134;2024-01-06T05:47:07;4.40;99.90
23629;DHT22;11991;57.150;-2.134;2024-01-06T05:49:35;4.30;99.90
23629;DHT22;11991;57.150;-2.134;2024-01-06T05:52:03;4.30;99.90
23629;DHT22;11991;57.150;-2.134;2024-01-06T05:54:30;4.30;99.90
23629;DHT22;11991;57.150;-2.134;2024-01-06T05:56:58;4.30;99.90
23629;DHT22;11991;57.150;-2.134;2024-01-06T05:59:25;4.30;99.90
23629;DHT22;11991;57.150;-2.134;2024-01-06T06:01:52;4.30;99.90
23629;DHT22;11991;57.150;-2.134;2024-01-06T06:04:19;4.20;99.90
23629;DHT22;11991;57.150;-2.134;2024-01-06T06:06:47;4.20;99.90
23629;DHT22;11991;57.150;-2.134;2024-01-06T06:09:14;4.20;99.90
23629;DHT22;11991;57.150;-2.134;2024-01-06T06:11:42;4.10;99.90
23629;DHT22;11991;57.150;-2.134;2024-01-06T06:14:10;4.10;99.90
23629;DHT22;11991;57.150;-2.134;2024-01-06T06:16:37;4.10;99.90
23629;DHT22;11991;57.150;-2.134;2024-01-06T06:19:04;4.00;99.90
23629;DHT22;11991;57.150;-2.134;2024-01-06T06:21:31;4.00;99.90
23629;DHT22;11991;57.150;-2.134;2024-01-06T06:23:59;4.00;99.90
23629;DHT22;11991;57.150;-2.134;2024-01-06T06:26:27;4.00;99.90
23629;DHT22;11991;57.150;-2.134;2024-01-06T06:28:55;4.00;99.90
23629;DHT22;11991;57.150;-2.134;2024-01-06T06:31:22;4.00;99.90
23629;DHT22;11991;57.150;-2.134;2024-01-06T06:33:49;3.90;99.90
23629;DHT22;11991;57.150;-2.134;2024-01-06T06:36:17;4.00;99.90
23629;DHT22;11991;57.150;-2.134;2024-01-06T06:38:44;3.90;99.90
23629;DHT22;11991;57.150;-2.134;2024-01-06T06:41:11;4.00;99.90
23629;DHT22;11991;57.150;-2.134;2024-01-06T06:43:39;3.90;99.90
23629;DHT22;11991;57.150;-2.134;2024-01-06T06:46:06;3.90;99.90
23629;DHT22;11991;57.150;-2.134;2024-01-06T06:48:33;3.90;99.90
23629;DHT22;11991;57.150;-2.134;2024-01-06T06:51:03;3.90;99.90
23629;DHT22;11991;57.150;-2.134;2024-01-06T06:53:30;3.90;99.90
23629;DHT22;11991;57.150;-2.134;2024-01-06T06:55:57;3.90;99.90
23629;DHT22;11991;57.150;-2.134;2024-01-06T06:58:24;3.90;99.90
23629;DHT22;11991;57.150;-2.134;2024-01-06T07:00:51;3.80;99.90
23629;DHT22;11991;57.150;-2.134;2024-01-06T07:03:21;3.80;99.90
23629;DHT22;11991;57.150;-2.134;2024-01-06T07:05:48;3.80;99.90
23629;DHT22;11991;57.150;-2.134;2024-01-06T07:08:16;3.80;99.90
23629;DHT22;11991;57.150;-2.134;2024-01-06T07:10:43;3.80;99.90
23629;DHT22;11991;57.150;-2.134;2024-01-06T07:13:10;3.80;99.90
23629;DHT22;11991;57.150;-2.134;2024-01-06T07:15:37;3.70;99.90
23629;DHT22;11991;57.150;-2.134;2024-01-06T07:18:04;3.70;99.90
23629;DHT22;11991;57.150;-2.134;2024-01-06T07:20:32;3.70;99.90
23629;DHT22;11991;57.150;-2.134;2024-01-06T07:22:59;3.70;99.90
23629;DHT22;11991;57.150;-2.134;2024-01-06T07:25:27;3.70;99.90
23629;DHT22;11991;57.150;-2.134;2024-01-06T07:27:54;3.70;99.90
23629;DHT22;11991;57.150;-2.134;2024-01-06T07:30:21;3.70;99.90
23629;DHT22;11991;57.150;-2.134;2024-01-06T07:32:49;3.80;99.90
23629;DHT22;11991;57.150;-2.134;2024-01-06T07:35:17;3.70;99.90
23629;DHT22;11991;57.150;-2.134;2024-01-06T07:37:44;3.80;99.90
23629;DHT22;11991;57.150;-2.134;2024-01-06T07:40:12;3.80;99.90
23629;DHT22;11991;57.150;-2.134;2024-01-06T07:42:43;3.80;99.90
23629;DHT22;11991;57.150;-2.134;2024-01-06T07:45:11;3.80;99.90
23629;DHT22;11991;57.150;-2.134;2024-01-06T07:47:40;3.80;99.90
23629;DHT22;11991;57.150;-2.134;2024-01-06T07:50:08;3.80;99.90
23629;DHT22;11991;57.150;-2.134;2024-01-06T07:52:35;3.80;99.90
23629;DHT22;11991;57.150;-2.134;2024-01-06T07:55:03;3.80;99.90
23629;DHT22;11991;57.150;-2.134;2024-01-06T07:57:30;3.90;99.90
23629;DHT22;11991;57.150;-2.134;2024-01-06T07:59:57;3.80;99.90
23629;DHT22;11991;57.150;-2.134;2024-01-06T08:02:37;3.80;99.90
23629;DHT22;11991;57.150;-2.134;2024-01-06T08:05:05;3.80;99.90
23629;DHT22;11991;57.150;-2.134;2024-01-06T08:07:34;3.80;99.90
23629;DHT22;11991;57.150;-2.134;2024-01-06T08:10:01;3.80;99.90
23629;DHT22;11991;57.150;-2.134;2024-01-06T08:12:32;3.80;99.90
23629;DHT22;11991;57.150;-2.134;2024-01-06T08:14:59;3.70;99.90
23629;DHT22;11991;57.150;-2.134;2024-01-06T08:17:26;3.70;99.90
23629;DHT22;11991;57.150;-2.134;2024-01-06T08:19:54;3.70;99.90
23629;DHT22;11991;57.150;-2.134;2024-01-06T08:22:22;3.80;99.90
23629;DHT22;11991;57.150;-2.134;2024-01-06T08:24:49;3.80;99.90
23629;DHT22;11991;57.150;-2.134;2024-01-06T08:27:16;3.70;99.90
23629;DHT22;11991;57.150;-2.134;2024-01-06T08:29:43;3.80;99.90
23629;DHT22;11991;57.150;-2.134;2024-01-06T08:32:10;3.80;99.90
23629;DHT22;11991;57.150;-2.134;2024-01-06T08:34:38;3.80;99.90
23629;DHT22;11991;57.150;-2.134;2024-01-06T08:37:05;3.80;99.90
23629;DHT22;11991;57.150;-2.134;2024-01-06T08:39:32;3.80;99.90
23629;DHT22;11991;57.150;-2.134;2024-01-06T08:42:00;3.80;99.90
23629;DHT22;11991;57.150;-2.134;2024-01-06T08:44:28;3.90;99.90
23629;DHT22;11991;57.150;-2.134;2024-01-06T08:46:55;3.90;99.90
23629;DHT22;11991;57.150;-2.134;2024-01-06T08:49:23;3.90;99.90
23629;DHT22;11991;57.150;-2.134;2024-01-06T08:51:50;3.90;99.90
23629;DHT22;11991;57.150;-2.134;2024-01-06T08:54:17;3.90;99.90
23629;DHT22;11991;57.150;-2.134;2024-01-06T08:56:44;3.90;99.90
23629;DHT22;11991;57.150;-2.134;2024-01-06T08:59:11;3.90;99.90
23629;DHT22;11991;57.150;-2.134;2024-01-06T09:01:39;3.90;99.90
23629;DHT22;11991;57.150;-2.134;2024-01-06T09:04:06;3.90;99.90
23629;DHT22;11991;57.150;-2.134;2024-01-06T09:06:34;3.90;99.90
23629;DHT22;11991;57.150;-2.134;2024-01-06T09:09:01;3.90;99.90
23629;DHT22;11991;57.150;-2.134;2024-01-06T09:11:28;3.90;99.90
23629;DHT22;11991;57.150;-2.134;2024-01-06T09:13:55;3.80;99.90
23629;DHT22;11991;57.150;-2.134;2024-01-06T09:16:23;3.80;99.90
23629;DHT22;11991;57.150;-2.134;2024-01-06T09:18:50;3.80;99.90
23629;DHT22;11991;57.150;-2.134;2024-01-06T09:21:17;3.80;99.90
23629;DHT22;11991;57.150;-2.134;2024-01-06T09:23:44;3.80;99.90
23629;DHT22;11991;57.150;-2.134;2024-01-06T09:26:12;3.70;99.90
23629;DHT22;11991;57.150;-2.134;2024-01-06T09:28:39;3.70;99.90
23629;DHT22;11991;57.150;-2.134;2024-01-06T09:31:06;3.80;99.90
23629;DHT22;11991;57.150;-2.134;2024-01-06T09:33:33;3.80;99.90
23629;DHT22;11991;57.150;-2.134;2024-01-06T09:36:02;3.80;99.90
23629;DHT22;11991;57.150;-2.134;2024-01-06T09:38:29;3.70;99.90
23629;DHT22;11991;57.150;-2.134;2024-01-06T09:40:56;3.80;99.90
23629;DHT22;11991;57.150;-2.134;2024-01-06T09:43:24;3.70;99.90
23629;DHT22;11991;57.150;-2.134;2024-01-06T09:46:17;3.70;99.90
23629;DHT22;11991;57.150;-2.134;2024-01-06T09:48:49;3.70;99.90
23629;DHT22;11991;57.150;-2.134;2024-01-06T09:51:20;3.70;99.90
23629;DHT22;11991;57.150;-2.134;2024-01-06T09:53:52;3.70;99.90
23629;DHT22;11991;57.150;-2.134;2024-01-06T09:56:19;3.70;99.90
23629;DHT22;11991;57.150;-2.134;2024-01-06T09:58:47;3.70;99.90
23629;DHT22;11991;57.150;-2.134;2024-01-06T10:01:14;3.70;99.90
23629;DHT22;11991;57.150;-2.134;2024-01-06T10:03:42;3.80;99.90
23629;DHT22;11991;57.150;-2.134;2024-01-06T10:06:09;3.80;99.90
23629;DHT22;11991;57.150;-2.134;2024-01-06T10:08:37;3.90;99.90
23629;DHT22;11991;57.150;-2.134;2024-01-06T10:11:07;3.90;99.90
23629;DHT22;11991;57.150;-2.134;2024-01-06T10:13:37;3.90;99.90
23629;DHT22;11991;57.150;-2.134;2024-01-06T10:16:08;3.90;99.90
23629;DHT22;11991;57.150;-2.134;2024-01-06T10:18:35;3.90;99.90
23629;DHT22;11991;57.150;-2.134;2024-01-06T10:21:04;4.00;99.90
23629;DHT22;11991;57.150;-2.134;2024-01-06T10:23:34;4.00;99.90
23629;DHT22;11991;57.150;-2.134;2024-01-06T10:26:03;4.00;99.90
23629;DHT22;11991;57.150;-2.134;2024-01-06T10:28:31;4.10;99.90
23629;DHT22;11991;57.150;-2.134;2024-01-06T10:30:59;4.10;99.90
23629;DHT22;11991;57.150;-2.134;2024-01-06T10:33:27;4.10;99.90
23629;DHT22;11991;57.150;-2.134;2024-01-06T10:35:55;4.20;99.90
23629;DHT22;11991;57.150;-2.134;2024-01-06T10:38:26;4.30;99.90
23629;DHT22;11991;57.150;-2.134;2024-01-06T10:41:01;4.30;99.90
23629;DHT22;11991;57.150;-2.134;2024-01-06T10:43:36;4.40;99.90
23629;DHT22;11991;57.150;-2.134;2024-01-06T10:46:11;4.40;99.90
23629;DHT22;11991;57.150;-2.134;2024-01-06T10:48:39;4.50;99.90
23629;DHT22;11991;57.150;-2.134;2024-01-06T10:51:12;4.50;99.90
23629;DHT22;11991;57.150;-2.134;2024-01-06T10:53:42;4.50;99.90
23629;DHT22;11991;57.150;-2.134;2024-01-06T10:56:10;4.50;99.90
23629;DHT22;11991;57.150;-2.134;2024-01-06T10:58:45;4.60;99.90
23629;DHT22;11991;57.150;-2.134;2024-01-06T11:01:14;4.60;99.90
23629;DHT22;11991;57.150;-2.134;2024-01-06T11:03:48;4.60;99.90
23629;DHT22;11991;57.150;-2.134;2024-01-06T11:06:19;4.60;99.90
23629;DHT22;11991;57.150;-2.134;2024-01-06T11:09:07;4.60;99.90
23629;DHT22;11991;57.150;-2.134;2024-01-06T11:11:36;4.70;99.90
23629;DHT22;11991;57.150;-2.134;2024-01-06T11:14:26;4.70;99.90
23629;DHT22;11991;57.150;-2.134;2024-01-06T11:16:55;4.80;99.90
23629;DHT22;11991;57.150;-2.134;2024-01-06T11:22:25;4.80;99.90
23629;DHT22;11991;57.150;-2.134;2024-01-06T11:25:08;4.80;99.90
23629;DHT22;11991;57.150;-2.134;2024-01-06T11:27:38;4.90;99.90
23629;DHT22;11991;57.150;-2.134;2024-01-06T11:30:05;4.90;99.90
23629;DHT22;11991;57.150;-2.134;2024-01-06T11:32:38;4.90;99.90
23629;DHT22;11991;57.150;-2.134;2024-01-06T11:35:16;4.90;99.90
23629;DHT22;11991;57.150;-2.134;2024-01-06T11:40:33;5.00;99.90
23629;DHT22;11991;57.150;-2.134;2024-01-06T11:43:08;5.00;99.90
23629;DHT22;11991;57.150;-2.134;2024-01-06T11:45:38;5.00;99.90
23629;DHT22;11991;57.150;-2.134;2024-01-06T11:48:06;5.00;99.90
23629;DHT22;11991;57.150;-2.134;2024-01-06T11:50:37;5.00;99.90
23629;DHT22;11991;57.150;-2.134;2024-01-06T11:53:06;5.00;99.90
23629;DHT22;11991;57.150;-2.134;2024-01-06T11:55:34;5.00;99.90
23629;DHT22;11991;57.150;-2.134;2024-01-06T11:58:02;5.00;99.90
23629;DHT22;11991;57.150;-2.134;2024-01-06T12:00:32;5.00;99.90
23629;DHT22;11991;57.150;-2.134;2024-01-06T12:03:00;5.10;99.90
23629;DHT22;11991;57.150;-2.134;2024-01-06T12:05:28;5.10;99.90
23629;DHT22;11991;57.150;-2.134;2024-01-06T12:08:01;5.10;99.90
23629;DHT22;11991;57.150;-2.134;2024-01-06T12:10:29;5.10;99.90
23629;DHT22;11991;57.150;-2.134;2024-01-06T12:12:57;5.10;99.90
23629;DHT22;11991;57.150;-2.134;2024-01-06T12:15:31;5.10;99.90
23629;DHT22;11991;57.150;-2.134;2024-01-06T12:18:02;5.20;99.90
23629;DHT22;11991;57.150;-2.134;2024-01-06T12:20:31;5.20;99.90
23629;DHT22;11991;57.150;-2.134;2024-01-06T12:22:58;5.20;99.90
23629;DHT22;11991;57.150;-2.134;2024-01-06T12:25:27;5.20;99.90
23629;DHT22;11991;57.150;-2.134;2024-01-06T12:27:56;5.30;99.90
23629;DHT22;11991;57.150;-2.134;2024-01-06T12:30:23;5.30;99.90
23629;DHT22;11991;57.150;-2.134;2024-01-06T12:32:52;5.40;99.90
23629;DHT22;11991;57.150;-2.134;2024-01-06T12:35:20;5.40;99.90
23629;DHT22;11991;57.150;-2.134;2024-01-06T12:37:51;5.40;99.90
23629;DHT22;11991;57.150;-2.134;2024-01-06T12:40:19;5.50;99.90
23629;DHT22;11991;57.150;-2.134;2024-01-06T12:42:47;5.50;99.90
23629;DHT22;11991;57.150;-2.134;2024-01-06T12:45:14;5.50;99.90
23629;DHT22;11991;57.150;-2.134;2024-01-06T12:47:43;5.50;99.90
23629;DHT22;11991;57.150;-2.134;2024-01-06T12:50:11;5.50;99.90
23629;DHT22;11991;57.150;-2.134;2024-01-06T12:52:38;5.50;99.90
23629;DHT22;11991;57.150;-2.134;2024-01-06T12:55:07;5.50;99.90
23629;DHT22;11991;57.150;-2.134;2024-01-06T12:57:35;5.60;99.90
23629;DHT22;11991;57.150;-2.134;2024-01-06T13:00:03;5.60;99.90
23629;DHT22;11991;57.150;-2.134;2024-01-06T13:02:32;5.60;99.90
23629;DHT22;11991;57.150;-2.134;2024-01-06T13:04:59;5.70;99.90
23629;DHT22;11991;57.150;-2.134;2024-01-06T13:07:27;5.70;99.90
23629;DHT22;11991;57.150;-2.134;2024-01-06T13:09:54;5.80;99.90
23629;DHT22;11991;57.150;-2.134;2024-01-06T13:12:22;5.80;99.90
23629;DHT22;11991;57.150;-2.134;2024-01-06T13:14:50;5.80;99.90
23629;DHT22;11991;57.150;-2.134;2024-01-06T13:17:18;5.80;99.90
23629;DHT22;11991;57.150;-2.134;2024-01-06T13:19:45;5.80;99.90
23629;DHT22;11991;57.150;-2.134;2024-01-06T13:22:12;5.80;99.90
23629;DHT22;11991;57.150;-2.134;2024-01-06T13:24:41;5.80;99.90
23629;DHT22;11991;57.150;-2.134;2024-01-06T13:27:09;5.80;99.90
23629;DHT22;11991;57.150;-2.134;2024-01-06T13:29:36;5.80;99.90
23629;DHT22;11991;57.150;-2.134;2024-01-06T13:32:04;5.80;99.90
23629;DHT22;11991;57.150;-2.134;2024-01-06T13:34:32;5.90;99.90
23629;DHT22;11991;57.150;-2.134;2024-01-06T13:37:00;5.90;99.90
23629;DHT22;11991;57.150;-2.134;2024-01-06T13:39:27;5.90;99.90
23629;DHT22;11991;57.150;-2.134;2024-01-06T13:41:54;5.90;99.90
23629;DHT22;11991;57.150;-2.134;2024-01-06T13:44:21;6.00;99.90
23629;DHT22;11991;57.150;-2.134;2024-01-06T13:46:49;6.00;99.90
23629;DHT22;11991;57.150;-2.134;2024-01-06T13:49:18;6.10;99.90
23629;DHT22;11991;57.150;-2.134;2024-01-06T13:51:46;6.10;99.90
23629;DHT22;11991;57.150;-2.134;2024-01-06T13:54:13;6.20;99.90
23629;DHT22;11991;57.150;-2.134;2024-01-06T13:56:44;6.20;99.90
23629;DHT22;11991;57.150;-2.134;2024-01-06T13:59:11;6.20;99.90
23629;DHT22;11991;57.150;-2.134;2024-01-06T14:01:38;6.20;99.90
23629;DHT22;11991;57.150;-2.134;2024-01-06T14:04:06;6.20;99.90
23629;DHT22;11991;57.150;-2.134;2024-01-06T14:06:34;6.20;99.90
23629;DHT22;11991;57.150;-2.134;2024-01-06T14:09:01;6.20;99.90
23629;DHT22;11991;57.150;-2.134;2024-01-06T14:11:29;6.20;99.90
23629;DHT22;11991;57.150;-2.134;2024-01-06T14:13:58;6.20;99.90
23629;DHT22;11991;57.150;-2.134;2024-01-06T14:16:26;6.20;99.90
23629;DHT22;11991;57.150;-2.134;2024-01-06T14:18:53;6.20;99.90
23629;DHT22;11991;57.150;-2.134;2024-01-06T14:21:20;6.20;99.90
23629;DHT22;11991;57.150;-2.134;2024-01-06T14:23:48;6.20;99.90
23629;DHT22;11991;57.150;-2.134;2024-01-06T14:26:19;6.20;99.90
23629;DHT22;11991;57.150;-2.134;2024-01-06T14:28:47;6.10;99.90
23629;DHT22;11991;57.150;-2.134;2024-01-06T14:31:15;6.10;99.90
23629;DHT22;11991;57.150;-2.134;2024-01-06T14:33:44;6.10;99.90
23629;DHT22;11991;57.150;-2.134;2024-01-06T14:36:12;6.00;99.90
23629;DHT22;11991;57.150;-2.134;2024-01-06T14:38:39;6.00;99.90
23629;DHT22;11991;57.150;-2.134;2024-01-06T14:41:07;6.00;99.90
23629;DHT22;11991;57.150;-2.134;2024-01-06T14:43:34;5.90;99.90
23629;DHT22;11991;57.150;-2.134;2024-01-06T14:46:01;5.90;99.90
23629;DHT22;11991;57.150;-2.134;2024-01-06T14:48:29;5.90;99.90
23629;DHT22;11991;57.150;-2.134;2024-01-06T14:50:57;5.80;99.90
23629;DHT22;11991;57.150;-2.134;2024-01-06T14:53:24;5.80;99.90
23629;DHT22;11991;57.150;-2.134;2024-01-06T14:55:51;5.80;99.90
23629;DHT22;11991;57.150;-2.134;2024-01-06T14:58:18;5.70;99.90
23629;DHT22;11991;57.150;-2.134;2024-01-06T15:00:45;5.70;99.90
23629;DHT22;11991;57.150;-2.134;2024-01-06T15:03:13;5.60;99.90
23629;DHT22;11991;57.150;-2.134;2024-01-06T15:05:40;5.60;99.90
23629;DHT22;11991;57.150;-2.134;2024-01-06T15:08:07;5.60;99.90
23629;DHT22;11991;57.150;-2.134;2024-01-06T15:10:34;5.60;99.90
23629;DHT22;11991;57.150;-2.134;2024-01-06T15:13:01;5.50;99.90
23629;DHT22;11991;57.150;-2.134;2024-01-06T15:15:30;5.40;99.90
23629;DHT22;11991;57.150;-2.134;2024-01-06T15:17:57;5.40;99.90
23629;DHT22;11991;57.150;-2.134;2024-01-06T15:20:25;5.40;99.90
23629;DHT22;11991;57.150;-2.134;2024-01-06T15:22:52;5.30;99.90
23629;DHT22;11991;57.150;-2.134;2024-01-06T15:25:19;5.30;99.90
23629;DHT22;11991;57.150;-2.134;2024-01-06T15:27:47;5.30;99.90
23629;DHT22;11991;57.150;-2.134;2024-01-06T15:30:14;5.20;99.90
23629;DHT22;11991;57.150;-2.134;2024-01-06T15:32:43;5.20;99.90
23629;DHT22;11991;57.150;-2.134;2024-01-06T15:35:11;5.20;99.90
23629;DHT22;11991;57.150;-2.134;2024-01-06T15:37:38;5.20;99.90
23629;DHT22;11991;57.150;-2.134;2024-01-06T15:40:06;5.20;99.90